Wellersburg, PA (15564)

7:59 PM EST on December 22, 2014 (GMT -0500)
Piney Mt. | Change Station
CLOSE
Current Station
Personal Weather Station
Location: Frostburg, MD
Elevation: 1949 ft
Nearby Weather Stations
Active Advisory: Freezing Rain Advisory Active Notice: Public Information Statement

Elev 1949 ft 39.65 °N, 78.88 °W | Updated 5 seconds ago

Overcast
Overcast
27.5 °F
Feels Like 28 °F
N
2.2
Wind Variable Wind from South
Gusts 3.1 mph

Today
High -- | Low -- °F
--% Chance of Precip.
Yesterday
High -- | Low -- °F
Precip. -- in
7:33 AM 4:54 PM
New Moon, 1% visible
Pressure 30.18 in
Visibility 2.0 miles
Clouds Scattered Clouds 300 ft
Overcast 1000 ft
Windchill 28 °F
Dew Point 27 °F
Humidity 97%
Rainfall 0.00 in
Snow Depth Not available.
UV 0.0 out of 12
Pollen .10 out of 12
Air Quality Not available.
Flu Activity Not available.
METAR KCBE 230042Z AUTO 00000KT 2SM SCT003 OVC010 00/00 A3018 RMK AO1

More Conditions Fewer Conditions

Pressure 30.18 in
Visibility 2.0 miles
Clouds Scattered Clouds 300 ft
Overcast 1000 ft
Windchill 28 °F
Dew Point 27 °F
Humidity 97%
Rainfall 0.00 in
Snow Depth Not available.
UV 0.0 out of 12
Pollen .10 out of 12
Air Quality Not available.
Flu Activity Not available.
METAR KCBE 230042Z AUTO 00000KT 2SM SCT003 OVC010 00/00 A3018 RMK AO1

More Conditions Fewer Conditions

10-Day Weather Forecast

Almanac

Astronomy

Dec. 22, 2014 Rise Set
Actual Time
Civil Twilight
Nautical Twilight
Astronomical Twilight
Moon
Length of Visible Light
Length of Day
Tomorrow will be .
, % of the Moon is Illuminated

Today's Extremes

State Highs State Lows

Community

WunderPhotos

Upload Photos

1,779,740 photos uploaded!

WunderBlogs® & News

Nearby

Air Quality

  Air Quality AQ Index Pollutant
Not available.

Snow Depth

Station Depth Elevation

Earthquake Activity

City Distance Mag. Time & Date
Minimum magnitude displayed is 2.5.

Coastal Water Temperatures

Place Temperature

Nearby Weather Stations